Hanseatic Scout — V2BM2 — position and weather

sailwx.info

Track history (hours):
 
Tides and Currents Weather Stations Pressure Air Temp Water Temp Dewpoint Dewpoint Depression Visibility Wind Speed Wind Dir Waves Ship Positions

Hanseatic Scout

Last reported at 2015-Aug-04 06:32 UTC. Time now 2015-Aug-04 07:29 UTC.
Position N 53°45' W 000°18'.

Length 89 m; draft 6 m.

Type: Cargo ship. MMSI: 304867000.

Date/timePositionNaut miles runAvg speedWind from/ knotsBaromVisibWave heightAir tempDewpointWater temp
2015-Aug-04 06:32N 53°45' W 000°18'0 0.0
2015-Aug-04 05:32N 53°45' W 000°18'0 0.0
2015-Aug-04 04:32N 53°45' W 000°18'0 0.0
2015-Aug-04 03:32N 53°45' W 000°18'0 0.0
2015-Aug-04 02:32N 53°45' W 000°18'0 0.0
2015-Aug-04 01:32N 53°45' W 000°18'0 0.0
2015-Aug-04 00:32N 53°45' W 000°18'0 0.0
2015-Aug-03 23:32N 53°45' W 000°18'0 0.0
2015-Aug-03 22:32N 53°45' W 000°18'0 0.0
2015-Aug-03 21:32N 53°45' W 000°18'0 0.0
2015-Aug-03 20:32N 53°45' W 000°18'0 0.0
2015-Aug-03 19:32N 53°45' W 000°18'0 0.0
2015-Aug-03 18:32N 53°45' W 000°18'0 0.0
2015-Aug-03 17:32N 53°45' W 000°18'0 0.0
2015-Aug-03 16:32N 53°45' W 000°18'0 0.0
2015-Aug-03 15:32N 53°45' W 000°18'0 0.0
2015-Aug-03 14:32N 53°45' W 000°18'0 0.0
2015-Aug-03 13:29N 53°45' W 000°18'0 0.0
2015-Aug-03 12:32N 53°45' W 000°18'0 0.0
2015-Aug-03 11:32N 53°45' W 000°18'0 0.0
2015-Aug-03 10:32N 53°45' W 000°18'0 0.0
2015-Aug-03 09:34N 53°45' W 000°18'0 0.0
2015-Aug-03 08:31N 53°45' W 000°18'0 0.0
2015-Aug-03 07:31N 53°45' W 000°18'0 0.0
2015-Aug-03 06:31N 53°45' W 000°18'0 0.0
2015-Aug-03 05:31N 53°45' W 000°18'0 0.0
2015-Aug-03 04:32N 53°45' W 000°18'0 0.0
2015-Aug-03 03:31N 53°45' W 000°18'0 0.0
2015-Aug-03 02:31N 53°45' W 000°18'0 0.0
2015-Aug-03 01:31N 53°45' W 000°18'0 0.0
2015-Aug-03 00:31N 53°45' W 000°18'0 0.0
2015-Aug-02 23:31N 53°45' W 000°18'0 0.0
2015-Aug-02 22:32N 53°45' W 000°18'0 0.0
2015-Aug-02 21:32N 53°45' W 000°18'0 0.0
2015-Aug-02 20:32N 53°45' W 000°18'0 0.0
2015-Aug-02 19:33N 53°45' W 000°18'0 0.0
2015-Aug-02 18:33N 53°45' W 000°18'0 0.0
2015-Aug-02 17:33N 53°45' W 000°18'0 0.0
2015-Aug-02 16:33N 53°45' W 000°18'0 0.0
2015-Aug-02 15:33N 53°45' W 000°18'0 0.0
2015-Aug-02 14:34N 53°45' W 000°18'0 0.0
2015-Aug-02 13:33N 53°45' W 000°18'0 0.0
2015-Aug-02 12:33N 53°45' W 000°18'0 0.0
2015-Aug-02 11:33N 53°45' W 000°18'0 0.0
2015-Aug-02 10:33N 53°45' W 000°18'0 0.0
2015-Aug-02 09:33N 53°45' W 000°18'0 0.0
2015-Aug-02 08:33N 53°45' W 000°18'0 0.0
2015-Aug-02 07:33N 53°45' W 000°18'0 0.0
2015-Aug-02 06:33N 53°45' W 000°18'0 0.1
2015-Aug-02 05:33N 53°45' W 000°18'5 5.0
2015-Aug-02 04:33N 53°41' W 000°13'10 9.8
2015-Aug-02 03:33N 53°35' E 000°01'10 9.8
2015-Aug-02 02:33N 53°33' E 000°17'6 5.9
2015-Aug-02 01:33N 53°33' E 000°27'8 7.9
2015-Aug-02 00:33N 53°35' E 000°40'118 8.8
2015-Aug-01 11:03N 54°00' E 003°56'33 9.5
2015-Aug-01 07:33N 54°05' E 004°52'9 9.2
2015-Aug-01 06:33N 54°06' E 005°07'9 9.5
2015-Aug-01 05:33N 54°07' E 005°23'1010.0
2015-Aug-01 04:33N 54°08' E 005°40'1110.8
2015-Aug-01 03:33N 54°10' E 005°59'2511.2
2015-Aug-01 01:17N 54°12' E 006°42'710.3
2015-Aug-01 00:33N 54°12' E 006°55'1010.3
2015-Jul-31 23:33N 54°12' E 007°12'10 9.7
2015-Jul-31 22:33N 54°12' E 007°29'9 8.9
2015-Jul-31 21:33N 54°08' E 007°43'9 8.9
2015-Jul-31 20:33N 54°04' E 007°56'9 8.9
2015-Jul-31 19:33N 54°01' E 008°10'9 9.2
2015-Jul-31 18:33N 53°59' E 008°26'1211.5
2015-Jul-31 17:33N 53°53' E 008°42'1212.2
2015-Jul-31 16:33N 53°52' E 009°03'5 5.4
2015-Jul-31 15:33N 53°55' E 009°11'17 8.5
2015-Jul-31 13:33N 54°10' E 009°25'8 8.5
2015-Jul-31 12:33N 54°14' E 009°37'8 7.7
2015-Jul-31 11:33N 54°21' E 009°45'7 7.2
2015-Jul-31 10:33N 54°21' E 009°57'6 6.0
2015-Jul-31 09:34N 54°22' E 010°07'1 1.2
2015-Jul-31 08:33N 54°22' E 010°09'3 3.3
2015-Jul-31 07:33N 54°25' E 010°12'7 7.2
2015-Jul-31 06:33N 54°31' E 010°19'8 8.4
2015-Jul-31 05:33N 54°34' E 010°33'9 9.4
2015-Jul-31 04:33N 54°35' E 010°49'8 8.3
2015-Jul-31 03:33N 54°36' E 011°03'8 8.3
2015-Jul-31 02:33N 54°34' E 011°17'8 8.4
2015-Jul-31 01:33N 54°31' E 011°30'8 8.3
2015-Jul-31 00:33N 54°27' E 011°43'9 8.5
2015-Jul-30 23:34N 54°27' E 011°57'8 7.9
2015-Jul-30 22:33N 54°29' E 012°11'52 8.4
2015-Jul-30 16:18N 54°57' E 013°27'6 8.3
2015-Jul-30 15:33N 54°59' E 013°37'9 8.6
2015-Jul-30 14:33N 55°01' E 013°52'9 9.0
2015-Jul-30 13:33N 55°05' E 014°06'9 9.5
2015-Jul-30 12:33N 55°13' E 014°16'10 9.9
2015-Jul-30 11:33N 55°20' E 014°27'10 9.8
2015-Jul-30 10:33N 55°27' E 014°39'1010.2
2015-Jul-30 09:33N 55°32' E 014°55'1010.3
2015-Jul-30 08:33N 55°38' E 015°11'1110.5
2015-Jul-30 07:33N 55°43' E 015°27'  
Track history (hours):
 
Tides and Currents Weather Stations Pressure Air Temp Water Temp Dewpoint Dewpoint Depression Visibility Wind Speed Wind Dir Waves Ship Positions

Hanseatic Scout

Last reported at 2015-Aug-04 06:32 UTC. Time now 2015-Aug-04 07:29 UTC.
Position N 53°45' W 000°18'.

Length 89 m; draft 6 m.

Type: Cargo ship. MMSI: 304867000.

Date/timePositionNaut miles runAvg speedWind from/ knotsBaromVisibWave heightAir tempDewpointWater temp
2015-Aug-04 06:32N 53°45' W 000°18'0 0.0
2015-Aug-04 05:32N 53°45' W 000°18'0 0.0
2015-Aug-04 04:32N 53°45' W 000°18'0 0.0
2015-Aug-04 03:32N 53°45' W 000°18'0 0.0
2015-Aug-04 02:32N 53°45' W 000°18'0 0.0
2015-Aug-04 01:32N 53°45' W 000°18'0 0.0
2015-Aug-04 00:32N 53°45' W 000°18'0 0.0
2015-Aug-03 23:32N 53°45' W 000°18'0 0.0
2015-Aug-03 22:32N 53°45' W 000°18'0 0.0
2015-Aug-03 21:32N 53°45' W 000°18'0 0.0
2015-Aug-03 20:32N 53°45' W 000°18'0 0.0
2015-Aug-03 19:32N 53°45' W 000°18'0 0.0
2015-Aug-03 18:32N 53°45' W 000°18'0 0.0
2015-Aug-03 17:32N 53°45' W 000°18'0 0.0
2015-Aug-03 16:32N 53°45' W 000°18'0 0.0
2015-Aug-03 15:32N 53°45' W 000°18'0 0.0
2015-Aug-03 14:32N 53°45' W 000°18'0 0.0
2015-Aug-03 13:29N 53°45' W 000°18'0 0.0
2015-Aug-03 12:32N 53°45' W 000°18'0 0.0
2015-Aug-03 11:32N 53°45' W 000°18'0 0.0
2015-Aug-03 10:32N 53°45' W 000°18'0 0.0
2015-Aug-03 09:34N 53°45' W 000°18'0 0.0
2015-Aug-03 08:31N 53°45' W 000°18'0 0.0
2015-Aug-03 07:31N 53°45' W 000°18'0 0.0
2015-Aug-03 06:31N 53°45' W 000°18'0 0.0
2015-Aug-03 05:31N 53°45' W 000°18'0 0.0
2015-Aug-03 04:32N 53°45' W 000°18'0 0.0
2015-Aug-03 03:31N 53°45' W 000°18'0 0.0
2015-Aug-03 02:31N 53°45' W 000°18'0 0.0
2015-Aug-03 01:31N 53°45' W 000°18'0 0.0
2015-Aug-03 00:31N 53°45' W 000°18'0 0.0
2015-Aug-02 23:31N 53°45' W 000°18'0 0.0
2015-Aug-02 22:32N 53°45' W 000°18'0 0.0
2015-Aug-02 21:32N 53°45' W 000°18'0 0.0
2015-Aug-02 20:32N 53°45' W 000°18'0 0.0
2015-Aug-02 19:33N 53°45' W 000°18'0 0.0
2015-Aug-02 18:33N 53°45' W 000°18'0 0.0
2015-Aug-02 17:33N 53°45' W 000°18'0 0.0
2015-Aug-02 16:33N 53°45' W 000°18'0 0.0
2015-Aug-02 15:33N 53°45' W 000°18'0 0.0
2015-Aug-02 14:34N 53°45' W 000°18'0 0.0
2015-Aug-02 13:33N 53°45' W 000°18'0 0.0
2015-Aug-02 12:33N 53°45' W 000°18'0 0.0
2015-Aug-02 11:33N 53°45' W 000°18'0 0.0
2015-Aug-02 10:33N 53°45' W 000°18'0 0.0
2015-Aug-02 09:33N 53°45' W 000°18'0 0.0
2015-Aug-02 08:33N 53°45' W 000°18'0 0.0
2015-Aug-02 07:33N 53°45' W 000°18'0 0.0
2015-Aug-02 06:33N 53°45' W 000°18'0 0.1
2015-Aug-02 05:33N 53°45' W 000°18'5 5.0
2015-Aug-02 04:33N 53°41' W 000°13'10 9.8
2015-Aug-02 03:33N 53°35' E 000°01'10 9.8
2015-Aug-02 02:33N 53°33' E 000°17'6 5.9
2015-Aug-02 01:33N 53°33' E 000°27'8 7.9
2015-Aug-02 00:33N 53°35' E 000°40'118 8.8
2015-Aug-01 11:03N 54°00' E 003°56'33 9.5
2015-Aug-01 07:33N 54°05' E 004°52'9 9.2
2015-Aug-01 06:33N 54°06' E 005°07'9 9.5
2015-Aug-01 05:33N 54°07' E 005°23'1010.0
2015-Aug-01 04:33N 54°08' E 005°40'1110.8
2015-Aug-01 03:33N 54°10' E 005°59'2511.2
2015-Aug-01 01:17N 54°12' E 006°42'710.3
2015-Aug-01 00:33N 54°12' E 006°55'1010.3
2015-Jul-31 23:33N 54°12' E 007°12'10 9.7
2015-Jul-31 22:33N 54°12' E 007°29'9 8.9
2015-Jul-31 21:33N 54°08' E 007°43'9 8.9
2015-Jul-31 20:33N 54°04' E 007°56'9 8.9
2015-Jul-31 19:33N 54°01' E 008°10'9 9.2
2015-Jul-31 18:33N 53°59' E 008°26'1211.5
2015-Jul-31 17:33N 53°53' E 008°42'1212.2
2015-Jul-31 16:33N 53°52' E 009°03'5 5.4
2015-Jul-31 15:33N 53°55' E 009°11'17 8.5
2015-Jul-31 13:33N 54°10' E 009°25'8 8.5
2015-Jul-31 12:33N 54°14' E 009°37'8 7.7
2015-Jul-31 11:33N 54°21' E 009°45'7 7.2
2015-Jul-31 10:33N 54°21' E 009°57'6 6.0
2015-Jul-31 09:34N 54°22' E 010°07'1 1.2
2015-Jul-31 08:33N 54°22' E 010°09'3 3.3
2015-Jul-31 07:33N 54°25' E 010°12'7 7.2
2015-Jul-31 06:33N 54°31' E 010°19'8 8.4
2015-Jul-31 05:33N 54°34' E 010°33'9 9.4
2015-Jul-31 04:33N 54°35' E 010°49'8 8.3
2015-Jul-31 03:33N 54°36' E 011°03'8 8.3
2015-Jul-31 02:33N 54°34' E 011°17'8 8.4
2015-Jul-31 01:33N 54°31' E 011°30'8 8.3
2015-Jul-31 00:33N 54°27' E 011°43'9 8.5
2015-Jul-30 23:34N 54°27' E 011°57'8 7.9
2015-Jul-30 22:33N 54°29' E 012°11'52 8.4
2015-Jul-30 16:18N 54°57' E 013°27'6 8.3
2015-Jul-30 15:33N 54°59' E 013°37'9 8.6
2015-Jul-30 14:33N 55°01' E 013°52'9 9.0
2015-Jul-30 13:33N 55°05' E 014°06'9 9.5
2015-Jul-30 12:33N 55°13' E 014°16'10 9.9
2015-Jul-30 11:33N 55°20' E 014°27'10 9.8
2015-Jul-30 10:33N 55°27' E 014°39'1010.2
2015-Jul-30 09:33N 55°32' E 014°55'1010.3
2015-Jul-30 08:33N 55°38' E 015°11'1110.5
2015-Jul-30 07:33N 55°43' E 015°27'  

Dump ship's entire track history